Time;durP1;ratioP1;P1;durP2;ratioP2;P2;SDS_P1;SDS_P2;PMS_P1;PMS_P2;Temp;Humidity;BMP_temperature;BMP_pressure;BME280_temperature;BME280_humidity;BME280_pressure;Samples;Min_cycle;Max_cycle;Signal;HPM_P1;HPM_P2
2022/01/30 00:04:43;;;;;;;41.63;6.55;;;;;;;5.75;93.69;102519.56;10459064;28;20504;-57
2022/01/30 00:09:46;;;;;;;34.53;5.85;;;;;;;5.69;94.42;102510.06;10458731;28;20106;-55
2022/01/30 00:14:53;;;;;;;27.05;5.07;;;;;;;5.66;95.50;102504.06;10458590;28;20489;-55
2022/01/30 00:20:03;;;;;;;33.13;6.40;;;;;;;5.55;94.74;102515.41;10458507;28;20493;-59
2022/01/30 00:25:14;;;;;;;27.75;6.03;;;;;;;5.55;94.17;102518.00;10458113;28;20049;-56
2022/01/30 00:30:17;;;;;;;39.33;7.20;;;;;;;5.47;93.83;102513.75;10475460;28;20511;-54
2022/01/30 00:35:20;;;;;;;30.55;7.05;;;;;;;5.48;92.94;102526.75;10457022;28;20049;-57
2022/01/30 00:40:22;;;;;;;32.78;6.18;;;;;;;5.39;94.48;102538.03;10457228;28;20056;-57
2022/01/30 00:45:25;;;;;;;44.65;6.97;;;;;;;5.41;93.03;102535.44;10457562;28;20110;-59
2022/01/30 00:50:28;;;;;;;37.53;7.00;;;;;;;5.44;91.71;102534.56;10457279;28;20405;-57
2022/01/30 00:55:31;;;;;;;26.02;5.68;;;;;;;5.42;91.28;102542.38;10456389;28;20155;-57
2022/01/30 01:00:33;;;;;;;23.27;5.68;;;;;;;5.45;90.62;102555.34;10457175;28;20055;-56
2022/01/30 01:05:37;;;;;;;30.85;6.03;;;;;;;5.33;90.29;102550.22;10459372;28;20045;-53
2022/01/30 01:10:49;;;;;;;39.40;7.40;;;;;;;5.38;89.35;102545.88;10474637;28;20045;-58
2022/01/30 01:26:31;;;;;;;28.80;4.97;;;;;;;5.14;91.48;102549.50;10456783;28;20053;-54
2022/01/30 01:31:33;;;;;;;36.63;6.22;;;;;;;5.13;90.37;102551.22;10456444;28;20076;-59
2022/01/30 01:36:36;;;;;;;27.30;5.28;;;;;;;5.08;91.95;102541.72;10456595;28;20052;-58
2022/01/30 01:41:38;;;;;;;47.83;6.07;;;;;;;5.01;90.14;102549.56;10455235;28;20057;-59
2022/01/30 01:46:42;;;;;;;36.78;6.07;;;;;;;5.09;90.55;102557.31;10464709;28;20049;-55
2022/01/30 01:51:49;;;;;;;27.67;5.25;;;;;;;5.16;90.42;102558.13;10470024;28;20041;-57
2022/01/30 01:56:52;;;;;;;37.50;6.28;;;;;;;5.10;88.75;102560.78;10464233;28;20512;-56
2022/01/30 02:01:54;;;;;;;26.25;5.68;;;;;;;4.95;90.06;102565.19;10464349;28;20049;-57
2022/01/30 02:12:33;;;;;;;27.27;5.68;;;;;;;4.85;92.45;102560.91;10462378;28;20528;-58
2022/01/30 02:28:08;;;;;;;36.83;6.80;;;;;;;4.83;92.58;102557.47;10483778;28;20059;-58
2022/01/30 02:33:10;;;;;;;21.85;4.95;;;;;;;4.90;92.80;102548.78;10462767;28;20405;-56
2022/01/30 02:38:16;;;;;;;28.58;6.00;;;;;;;5.06;91.51;102572.03;10462492;28;20401;-56
2022/01/30 02:43:20;;;;;;;32.20;6.15;;;;;;;5.19;90.88;102566.78;10462646;28;20052;-58
2022/01/30 02:48:31;;;;;;;25.75;5.10;;;;;;;5.28;90.13;102563.25;10462090;28;20061;-58
2022/01/30 02:53:39;;;;;;;20.45;4.70;;;;;;;5.27;90.78;102581.44;10461277;28;20056;-57
2022/01/30 02:58:41;;;;;;;27.42;5.82;;;;;;;5.18;90.47;102590.16;10461682;28;20045;-58
2022/01/30 03:03:43;;;;;;;26.73;5.65;;;;;;;5.05;91.09;102594.56;10460207;28;20052;-59
2022/01/30 03:08:46;;;;;;;34.85;5.53;;;;;;;5.02;91.40;102618.78;10482058;28;20045;-55
2022/01/30 03:13:48;;;;;;;29.73;4.88;;;;;;;4.92;92.37;102630.09;10462581;28;20045;-57
2022/01/30 03:18:51;;;;;;;29.63;5.07;;;;;;;4.88;92.88;102630.97;10461303;28;20052;-58
2022/01/30 03:23:53;;;;;;;25.45;4.63;;;;;;;4.95;93.37;102648.25;10460721;28;20049;-54
2022/01/30 03:29:04;;;;;;;28.92;5.10;;;;;;;4.91;92.95;102656.03;10460641;28;20063;-57
2022/01/30 03:34:08;;;;;;;22.83;4.97;;;;;;;5.02;91.69;102655.13;10460626;28;20045;-57
2022/01/30 03:39:10;;;;;;;23.83;4.90;;;;;;;4.94;90.76;102658.63;10460740;28;20386;-58
2022/01/30 03:44:12;;;;;;;28.00;4.45;;;;;;;4.83;91.27;102653.50;10460057;28;20072;-55
2022/01/30 03:49:15;;;;;;;26.90;4.95;;;;;;;4.73;91.61;102663.03;10480654;28;20052;-58
2022/01/30 03:54:18;;;;;;;25.40;4.95;;;;;;;4.67;92.15;102662.19;10459699;28;20053;-56
2022/01/30 03:59:21;;;;;;;18.60;4.15;;;;;;;4.47;92.97;102668.28;10459455;28;20053;-57
2022/01/30 04:04:23;;;;;;;22.90;4.38;;;;;;;4.47;92.20;102670.88;10459504;28;20052;-56
2022/01/30 04:09:27;;;;;;;23.48;4.30;;;;;;;4.30;92.53;102675.22;10458660;28;20061;-56
2022/01/30 04:14:29;;;;;;;24.30;3.83;;;;;;;4.46;91.28;102682.13;10459596;28;20056;-54
2022/01/30 04:19:32;;;;;;;24.25;4.78;;;;;;;4.36;92.92;102689.06;10458499;28;20057;-57
2022/01/30 04:24:34;;;;;;;21.30;4.07;;;;;;;4.23;94.08;102695.97;10460004;28;20067;-58
2022/01/30 04:29:36;;;;;;;22.95;4.95;;;;;;;4.31;94.31;102695.97;10490115;28;20136;-56
2022/01/30 04:34:41;;;;;;;27.08;4.10;;;;;;;4.21;95.00;102696.84;10457863;28;20045;-57
2022/01/30 05:06:11;;;;;;;28.65;4.82;;;;;;;4.07;94.15;102705.50;10456888;28;20059;-57
2022/01/30 05:11:13;;;;;;;21.80;4.13;;;;;;;4.30;92.71;102709.81;10479883;28;20049;-57
2022/01/30 05:16:17;;;;;;;16.35;2.88;;;;;;;4.31;90.94;102708.94;10456693;28;20057;-59
2022/01/30 05:21:20;;;;;;;26.65;4.68;;;;;;;4.16;90.82;102706.38;10456121;28;20053;-59
2022/01/30 05:26:25;;;;;;;21.05;4.40;;;;;;;3.98;91.81;102710.66;10456547;28;20409;-59
2022/01/30 05:31:28;;;;;;;21.88;3.70;;;;;;;4.11;91.85;102714.13;10455270;28;20048;-57
2022/01/30 05:36:33;;;;;;;22.50;3.53;;;;;;;4.08;92.51;102727.09;10456632;28;20045;-55
2022/01/30 05:41:36;;;;;;;23.05;3.60;;;;;;;4.17;91.06;102721.91;10456078;28;20049;-57
2022/01/30 05:46:46;;;;;;;26.70;3.17;;;;;;;4.31;91.51;102713.28;10454834;28;20053;-57
2022/01/30 05:51:48;;;;;;;20.50;3.45;;;;;;;4.25;89.69;102729.69;10474741;28;20053;-54
2022/01/30 05:56:51;;;;;;;20.30;3.92;;;;;;;4.20;91.23;102719.34;10462901;28;20481;-57
2022/01/30 06:01:53;;;;;;;19.33;4.05;;;;;;;4.23;91.34;102718.44;10456464;28;20049;-59
2022/01/30 06:06:57;;;;;;;15.32;3.95;;;;;;;4.06;91.39;102734.00;10455771;28;20573;-55
2022/01/30 06:12:00;;;;;;;14.77;3.63;;;;;;;3.95;93.29;102739.19;10455415;28;20056;-57
2022/01/30 06:17:02;;;;;;;14.85;3.45;;;;;;;3.75;94.25;102759.88;10455505;28;20413;-57
2022/01/30 06:22:05;;;;;;;23.08;4.32;;;;;;;4.04;93.41;102754.75;10455597;28;20053;-56
2022/01/30 06:27:07;;;;;;;27.42;5.30;;;;;;;4.00;94.92;102749.53;10455556;28;20056;-59
2022/01/30 06:32:10;;;;;;;25.15;4.05;;;;;;;4.09;93.86;102755.59;10482470;28;20127;-55
2022/01/30 06:37:12;;;;;;;30.92;4.63;;;;;;;4.17;93.34;102760.81;10462622;28;20405;-56
2022/01/30 06:42:14;;;;;;;21.13;5.28;;;;;;;4.28;94.45;102769.44;10462453;28;20432;-55
2022/01/30 06:47:17;;;;;;;26.38;4.78;;;;;;;4.25;93.73;102774.66;10461039;28;20053;-56
2022/01/30 06:52:19;;;;;;;23.83;4.78;;;;;;;4.34;93.65;102768.59;10462128;28;20055;-57
2022/01/30 06:57:22;;;;;;;34.50;6.38;;;;;;;4.20;93.63;102776.38;10462236;28;20056;-58
2022/01/30 07:02:24;;;;;;;25.48;5.00;;;;;;;4.22;94.27;102790.19;10461450;28;20505;-55
2022/01/30 07:07:27;;;;;;;29.50;5.07;;;;;;;4.01;94.38;102788.44;10475625;28;20037;-55
2022/01/30 07:12:29;;;;;;;27.27;4.65;;;;;;;3.95;94.62;102796.22;10469502;28;20041;-58
2022/01/30 07:17:31;;;;;;;23.35;5.38;;;;;;;4.05;94.85;102815.22;10460983;28;20481;-58
2022/01/30 07:22:34;;;;;;;29.77;5.53;;;;;;;3.99;95.25;102813.47;10460957;28;20107;-56
2022/01/30 07:27:37;;;;;;;29.27;6.82;;;;;;;4.14;94.17;102832.53;10460858;28;20057;-53
2022/01/30 07:32:39;;;;;;;26.92;3.47;;;;;;;4.14;93.68;102835.13;10459562;28;20052;-56
2022/01/30 07:37:42;;;;;;;24.20;4.28;;;;;;;4.08;93.97;102831.66;10460295;28;20525;-55
2022/01/30 07:42:44;;;;;;;26.00;4.00;;;;;;;4.11;93.37;102833.38;10459254;28;20397;-53
2022/01/30 07:47:46;;;;;;;23.42;4.47;;;;;;;4.05;93.50;102836.84;10459991;28;20056;-55
2022/01/30 07:52:50;;;;;;;33.08;5.78;;;;;;;4.06;93.09;102845.47;10458893;28;20049;-55
2022/01/30 07:57:52;;;;;;;26.70;5.18;;;;;;;4.16;92.11;102852.41;10460138;28;20056;-55
2022/01/30 08:02:54;;;;;;;22.00;4.35;;;;;;;4.33;91.01;102860.22;10459439;28;20052;-52
2022/01/30 08:07:57;;;;;;;25.10;5.55;;;;;;;4.34;90.48;102872.34;10458951;28;20489;-56
2022/01/30 08:12:59;;;;;;;19.85;3.55;;;;;;;4.28;91.12;102874.91;10457715;28;20068;-58
2022/01/30 08:18:02;;;;;;;24.00;4.10;;;;;;;4.18;91.39;102871.41;10457501;28;20053;-56
2022/01/30 08:23:12;;;;;;;27.33;5.13;;;;;;;4.55;90.75;102855.06;10458577;28;20059;-56
2022/01/30 08:28:14;;;;;;;26.13;4.50;;;;;;;4.74;90.32;102866.31;10458414;28;20060;-57
2022/01/30 08:33:16;;;;;;;33.40;5.45;;;;;;;4.63;89.40;102874.94;10458061;28;20056;-54
2022/01/30 08:38:20;;;;;;;22.73;4.30;;;;;;;5.41;85.86;102865.34;10457661;28;20516;-55
2022/01/30 08:43:22;;;;;;;26.85;5.30;;;;;;;4.80;87.35;102884.47;10457814;28;20390;-54
2022/01/30 08:48:25;;;;;;;16.98;3.80;;;;;;;4.65;89.11;102890.53;10457660;28;20056;-56
2022/01/30 08:53:27;;;;;;;27.50;5.85;;;;;;;4.58;88.04;102896.59;10457108;28;20052;-57
2022/01/30 08:58:30;;;;;;;22.98;5.07;;;;;;;6.02;85.07;102895.50;10457836;28;20056;-57
2022/01/30 09:03:32;;;;;;;30.10;6.28;;;;;;;5.06;85.01;102901.78;10456876;28;20052;-57
2022/01/30 09:08:35;;;;;;;24.05;5.00;;;;;;;5.08;87.34;102915.63;10457160;28;20499;-57
2022/01/30 09:13:37;;;;;;;24.30;4.78;;;;;;;5.08;86.73;102920.81;10456662;28;20045;-56
2022/01/30 09:18:39;;;;;;;27.77;6.80;;;;;;;6.52;83.22;102919.50;10456955;28;20085;-56
2022/01/30 09:23:42;;;;;;;29.02;6.63;;;;;;;6.45;77.85;102920.41;10455526;28;20072;-57
2022/01/30 09:28:44;;;;;;;25.48;6.63;;;;;;;6.55;82.14;102921.22;10456566;28;20063;-55
2022/01/30 09:33:47;;;;;;;26.60;5.20;;;;;;;5.70;82.37;102921.56;10456304;28;20053;-58
2022/01/30 09:38:50;;;;;;;30.75;6.25;;;;;;;5.38;82.67;102938.13;10455486;28;20095;-56
2022/01/30 09:43:52;;;;;;;25.90;5.93;;;;;;;5.48;84.37;102941.56;10456476;28;20061;-56
2022/01/30 09:48:56;;;;;;;33.63;7.10;;;;;;;5.32;85.16;102946.78;10476996;28;20051;-56
2022/01/30 09:53:59;;;;;;;32.55;6.63;;;;;;;5.41;85.36;102948.47;10456160;28;20486;-54
2022/01/30 09:59:02;;;;;;;34.60;7.00;;;;;;;6.76;76.16;102951.44;10454817;28;20452;-54
2022/01/30 10:04:05;;;;;;;31.08;5.82;;;;;;;7.79;75.60;102955.72;10456565;28;20056;-58
2022/01/30 10:09:30;;;;;;;30.85;6.22;;;;;;;9.19;68.48;102958.16;10464172;28;20089;-54
2022/01/30 10:14:33;;;;;;;34.47;5.80;;;;;;;10.28;69.85;102963.06;10463284;28;20409;-54
2022/01/30 10:20:00;;;;;;;34.35;5.97;;;;;;;9.69;67.78;102953.75;10463301;28;20044;-56
2022/01/30 10:25:03;;;;;;;30.55;6.50;;;;;;;10.10;65.04;102952.06;10463189;28;20544;-56
2022/01/30 10:30:07;;;;;;;22.58;5.60;;;;;;;9.92;63.38;102953.31;10461726;28;20048;-57
2022/01/30 10:35:10;;;;;;;38.33;7.75;;;;;;;10.93;65.00;102950.22;10462636;28;20049;-59
2022/01/30 10:40:19;;;;;;;35.22;5.75;;;;;;;10.21;68.46;102947.47;10462457;28;20064;-58
2022/01/30 10:45:28;;;;;;;40.95;7.43;;;;;;;7.96;73.51;102964.22;10462479;28;20056;-59
2022/01/30 10:50:31;;;;;;;28.30;6.32;;;;;;;8.00;75.57;102960.72;10461166;28;20052;-57
2022/01/30 10:55:36;;;;;;;36.83;8.20;;;;;;;7.54;76.20;102971.63;10461732;28;20049;-57
2022/01/30 11:00:53;;;;;;;36.28;6.90;;;;;;;8.54;73.00;102960.03;10462216;28;20045;-58
2022/01/30 11:05:59;;;;;;;34.63;6.57;;;;;;;7.87;73.41;102964.34;10461617;28;20053;-58
2022/01/30 11:11:31;;;;;;;34.05;7.50;;;;;;;8.03;74.35;102946.75;10461453;28;20071;-58
2022/01/30 11:22:01;;;;;;;25.15;6.53;;;;;;;9.10;68.72;102953.94;10461376;28;20087;-57
2022/01/30 11:27:09;;;;;;;33.70;6.63;;;;;;;9.45;70.10;102942.88;10460356;28;20121;-59
2022/01/30 11:32:12;;;;;;;31.88;5.75;;;;;;;10.31;63.39;102927.19;10460726;28;20045;-57
2022/01/30 11:37:16;;;;;;;40.38;7.53;;;;;;;8.78;68.67;102925.75;10459110;28;20053;-58
2022/01/30 11:42:27;;;;;;;20.35;6.15;;;;;;;9.52;64.48;102933.16;10460385;28;20049;-58
2022/01/30 11:47:42;;;;;;;29.92;6.13;;;;;;;8.52;67.17;102924.38;10481176;28;20549;-58
2022/01/30 11:52:56;;;;;;;33.90;6.78;;;;;;;8.77;66.70;102924.88;10459465;28;20045;-57
2022/01/30 11:57:58;;;;;;;37.47;6.40;;;;;;;9.09;66.47;102911.28;10459883;28;20049;-58
2022/01/30 12:03:20;;;;;;;37.70;8.10;;;;;;;8.89;65.69;102929.03;10459439;28;20056;-58
2022/01/30 12:08:41;;;;;;;;;;;;;;;8.52;69.05;102929.59;10459746;28;20433;-58
2022/01/30 12:13:44;;;;;;;31.77;6.82;;;;;;;8.17;65.61;102921.34;10458799;28;20395;-58
2022/01/30 12:18:46;;;;;;;32.38;7.22;;;;;;;7.95;66.84;102917.28;10460048;28;20075;-59
2022/01/30 12:23:49;;;;;;;21.63;5.95;;;;;;;8.19;66.23;102914.38;10458355;28;20053;-57
2022/01/30 12:28:53;;;;;;;41.15;8.43;;;;;;;8.16;67.35;102908.31;10477635;28;20117;-56
2022/01/30 12:34:09;;;;;;;27.50;7.25;;;;;;;7.54;64.00;102901.25;10457887;28;20059;-58
2022/01/30 12:39:21;;;;;;;24.63;6.75;;;;;;;7.58;62.01;102887.31;10459120;28;20049;-59
2022/01/30 12:44:29;;;;;;;29.95;5.95;;;;;;;7.95;63.75;102885.97;10458857;28;20133;-59
2022/01/30 12:49:39;;;;;;;33.47;6.63;;;;;;;7.61;63.54;102878.56;10458506;28;20049;-58
2022/01/30 12:54:43;;;;;;;33.42;5.93;;;;;;;7.86;63.52;102873.06;10457686;28;20049;-59
2022/01/30 12:59:59;;;;;;;29.65;6.35;;;;;;;8.02;63.43;102861.56;10456720;28;20052;-55
2022/01/30 13:05:02;;;;;;;35.20;7.05;;;;;;;7.52;63.37;102852.63;10457063;28;20111;-59
2022/01/30 13:10:15;;;;;;;38.70;7.15;;;;;;;8.06;65.61;102847.56;10457091;28;20045;-59
2022/01/30 13:15:22;;;;;;;31.08;7.68;;;;;;;7.97;64.15;102826.84;10456636;28;20041;-59
2022/01/30 13:20:26;;;;;;;30.58;6.55;;;;;;;8.23;64.51;102828.22;10457626;28;20041;-58
2022/01/30 13:25:28;;;;;;;32.83;6.55;;;;;;;7.98;65.79;102812.91;10456251;28;20067;-56
2022/01/30 13:30:33;;;;;;;28.10;6.00;;;;;;;8.03;64.15;102791.97;10456674;28;20045;-57
2022/01/30 13:35:36;;;;;;;33.25;6.75;;;;;;;8.06;61.52;102792.78;10456619;28;20049;-59
2022/01/30 13:40:53;;;;;;;32.08;6.28;;;;;;;8.10;64.60;102775.34;10461113;28;20132;-57
2022/01/30 13:51:21;;;;;;;38.83;7.07;;;;;;;9.36;58.52;102740.88;10485966;28;20091;-59
2022/01/30 13:56:23;;;;;;;33.22;7.72;;;;;;;8.54;62.17;102734.66;10464184;28;20056;-58
2022/01/30 14:01:30;;;;;;;22.55;5.88;;;;;;;8.90;63.04;102733.06;10464155;28;20053;-59
2022/01/30 14:06:36;;;;;;;33.70;7.07;;;;;;;7.78;64.27;102732.34;10464580;28;20057;-56
2022/01/30 14:11:51;;;;;;;26.55;6.88;;;;;;;7.60;65.49;102730.88;10463240;28;20555;-60
2022/01/30 14:17:01;;;;;;;26.75;5.80;;;;;;;7.65;63.92;102729.06;10464003;28;20049;-56
2022/01/30 14:22:20;;;;;;;33.08;5.28;;;;;;;7.62;63.16;102722.13;10463096;28;20048;-59
2022/01/30 14:27:24;;;;;;;22.98;6.22;;;;;;;7.77;64.63;102722.81;10476488;28;20044;-55
2022/01/30 14:32:33;;;;;;;36.05;8.15;;;;;;;7.31;62.80;102721.69;10483710;28;20109;-55
2022/01/30 14:37:36;;;;;;;25.88;6.25;;;;;;;7.40;65.90;102703.34;10462038;28;20053;-57
2022/01/30 14:42:39;;;;;;;32.10;5.47;;;;;;;7.16;66.68;102704.53;10462648;28;20045;-58
2022/01/30 14:47:41;;;;;;;28.00;6.53;;;;;;;6.93;64.54;102714.38;10462384;28;20056;-57
2022/01/30 14:52:43;;;;;;;29.70;5.22;;;;;;;6.90;64.89;102712.63;10461492;28;20408;-58
2022/01/30 14:57:46;;;;;;;26.70;6.20;;;;;;;6.77;63.70;102711.91;10461110;28;20059;-56
2022/01/30 15:02:50;;;;;;;35.13;5.18;;;;;;;6.98;65.83;102702.16;10461913;28;20055;-54
2022/01/30 15:07:53;;;;;;;29.08;4.85;;;;;;;6.93;66.56;102696.13;10462487;28;20051;-55
2022/01/30 15:12:55;;;;;;;30.00;7.10;;;;;;;6.96;66.88;102696.06;10487638;28;20568;-58
2022/01/30 15:18:05;;;;;;;33.83;6.10;;;;;;;6.50;65.86;102687.88;10461150;28;20437;-56
2022/01/30 15:23:07;;;;;;;39.90;6.43;;;;;;;6.19;67.55;102689.06;10461742;28;20055;-57
2022/01/30 15:28:09;;;;;;;28.83;5.72;;;;;;;6.29;68.85;102669.91;10459548;28;20061;-54
2022/01/30 15:33:12;;;;;;;29.70;6.50;;;;;;;6.30;69.49;102658.59;10460678;28;20045;-59
2022/01/30 15:38:17;;;;;;;36.85;6.55;;;;;;;6.39;70.23;102653.31;10460346;28;20477;-57
2022/01/30 15:43:21;;;;;;;45.85;9.93;;;;;;;6.07;68.40;102651.00;10460366;28;20045;-57
2022/01/30 15:53:45;;;;;;;32.13;6.37;;;;;;;5.78;70.61;102636.47;10464522;28;20048;-58
2022/01/30 15:58:47;;;;;;;32.22;7.20;;;;;;;5.59;71.09;102634.03;10457959;28;20041;-56
2022/01/30 16:03:50;;;;;;;30.58;5.85;;;;;;;5.66;73.21;102628.78;10456552;28;20048;-57
2022/01/30 16:08:59;;;;;;;35.80;6.70;;;;;;;5.51;72.78;102625.41;10456368;28;20051;-59
2022/01/30 16:19:24;;;;;;;31.00;7.10;;;;;;;5.27;74.35;102592.69;10458543;28;20052;-54
2022/01/30 16:24:26;;;;;;;29.27;6.47;;;;;;;4.91;74.57;102589.44;10458273;28;20400;-54
2022/01/30 16:29:29;;;;;;;34.13;5.80;;;;;;;4.89;74.33;102575.59;10457294;28;20059;-59
2022/01/30 16:34:36;;;;;;;31.90;5.38;;;;;;;4.74;74.45;102567.88;10481958;28;20052;-59
2022/01/30 16:39:38;;;;;;;33.45;4.97;;;;;;;4.22;78.09;102564.63;10458207;28;20049;-59
2022/01/30 16:44:45;;;;;;;30.83;5.20;;;;;;;4.34;78.06;102555.94;10457791;28;20103;-57
2022/01/30 16:49:47;;;;;;;21.02;5.13;;;;;;;4.12;78.27;102547.38;10457883;28;20052;-54
2022/01/30 16:54:54;;;;;;;31.98;4.82;;;;;;;4.11;78.14;102534.41;10456786;28;20045;-57
2022/01/30 16:59:58;;;;;;;34.13;6.07;;;;;;;3.87;79.02;102531.84;10457917;28;20435;-59
2022/01/30 17:05:01;;;;;;;37.45;7.57;;;;;;;3.65;80.01;102525.00;10456983;28;20051;-58
2022/01/30 17:10:08;;;;;;;28.42;4.60;;;;;;;3.77;83.02;102517.19;10457462;28;20048;-56
2022/01/30 17:15:11;;;;;;;23.77;5.28;;;;;;;3.20;81.22;102509.44;10469731;28;20386;-56
2022/01/30 17:20:19;;;;;;;33.05;6.65;;;;;;;3.10;82.52;102505.97;10456659;28;20044;-54
2022/01/30 17:25:43;;;;;;;38.00;6.82;;;;;;;3.02;84.46;102507.69;10456314;28;20443;-57
2022/01/30 17:30:45;;;;;;;30.55;6.72;;;;;;;2.86;85.12;102504.22;10456688;28;20056;-55
2022/01/30 17:35:48;;;;;;;46.22;8.07;;;;;;;2.70;86.18;102490.38;10456207;28;20074;-54
2022/01/30 17:40:51;;;;;;;23.38;5.32;;;;;;;2.96;86.74;102500.78;10455931;28;20489;-55
2022/01/30 17:45:53;;;;;;;20.88;6.38;;;;;;;2.62;88.62;102499.81;10456718;28;20060;-56
2022/01/30 17:50:56;;;;;;;31.55;5.78;;;;;;;2.46;89.29;102492.91;10456002;28;20440;-57
2022/01/30 17:55:58;;;;;;;27.25;6.07;;;;;;;2.44;91.56;102482.56;10471625;28;20033;-55
2022/01/30 18:01:01;;;;;;;29.92;7.22;;;;;;;2.45;89.53;102486.84;10461741;28;20469;-56
2022/01/30 18:06:04;;;;;;;29.40;6.65;;;;;;;2.45;90.73;102484.25;10455926;28;20560;-53
2022/01/30 18:11:07;;;;;;;29.83;6.70;;;;;;;2.85;90.72;102481.78;10456051;28;20071;-59
2022/01/30 18:16:10;;;;;;;33.08;5.80;;;;;;;2.96;91.92;102480.09;10456261;28;20057;-56
2022/01/30 18:21:12;;;;;;;43.75;8.60;;;;;;;2.88;91.63;102470.59;10456092;28;20045;-57
2022/01/30 18:26:17;;;;;;;25.90;6.45;;;;;;;3.14;91.46;102465.41;10458842;28;20060;-57
2022/01/30 18:31:23;;;;;;;31.67;7.75;;;;;;;3.15;90.02;102473.19;10463321;28;20110;-54
2022/01/30 18:36:28;;;;;;;34.83;6.82;;;;;;;3.26;91.58;102454.19;10483427;28;20103;-59
2022/01/30 18:41:31;;;;;;;32.90;8.60;;;;;;;3.69;86.96;102452.44;10464367;28;20055;-56
2022/01/30 18:46:33;;;;;;;45.25;11.98;;;;;;;3.80;85.73;102439.47;10462445;28;20434;-57
2022/01/30 18:51:35;;;;;;;41.78;10.52;;;;;;;3.42;89.16;102442.13;10463548;28;20106;-58
2022/01/30 18:56:38;;;;;;;41.03;9.48;;;;;;;3.62;89.13;102418.78;10462033;28;20045;-58
2022/01/30 19:01:40;;;;;;;36.15;9.27;;;;;;;3.75;90.51;102409.22;10462058;28;20048;-55
2022/01/30 19:06:45;;;;;;;35.53;9.52;;;;;;;3.67;89.73;102401.50;10462008;28;20136;-56
2022/01/30 19:11:47;;;;;;;40.55;9.55;;;;;;;3.48;90.53;102382.53;10461270;28;20398;-57
2022/01/30 19:16:49;;;;;;;34.08;8.05;;;;;;;3.44;91.22;102371.31;10476202;28;20024;-55
2022/01/30 19:21:52;;;;;;;41.92;12.48;;;;;;;3.33;89.96;102358.41;10468344;28;20087;-53
2022/01/30 19:26:55;;;;;;;36.55;8.50;;;;;;;3.23;92.09;102351.53;10460675;28;20057;-58
2022/01/30 19:31:57;;;;;;;28.73;7.32;;;;;;;3.45;90.90;102357.53;10460741;28;20052;-56
2022/01/30 19:37:00;;;;;;;28.05;6.20;;;;;;;3.97;88.79;102342.63;10460997;28;20450;-58
2022/01/30 19:42:04;;;;;;;37.83;8.88;;;;;;;3.90;89.91;102355.63;10460750;28;20055;-56
2022/01/30 19:47:06;;;;;;;28.63;5.78;;;;;;;3.98;88.17;102334.84;10458982;28;20493;-57
2022/01/30 19:52:09;;;;;;;17.95;4.68;;;;;;;3.95;88.25;102334.00;10460233;28;20060;-52
2022/01/30 19:57:12;;;;;;;30.58;5.40;;;;;;;4.02;87.40;102310.66;10480078;28;20055;-58
2022/01/30 20:02:14;;;;;;;24.67;5.20;;;;;;;4.18;86.44;102276.84;10459889;28;20049;-58
2022/01/30 20:07:17;;;;;;;31.63;6.03;;;;;;;4.02;87.95;102242.41;10458885;28;20554;-55
2022/01/30 20:12:19;;;;;;;38.67;12.70;;;;;;;3.99;90.18;102232.06;10459585;28;20056;-57
2022/01/30 20:17:22;;;;;;;15.88;6.13;;;;;;;4.05;89.28;102213.88;10458796;28;20049;-59
2022/01/30 20:22:24;;;;;;;20.70;5.60;;;;;;;3.89;90.76;102195.84;10459419;28;20069;-55
2022/01/30 20:27:27;;;;;;;28.33;5.90;;;;;;;4.08;90.77;102162.00;10459641;28;20061;-59
2022/01/30 20:32:30;;;;;;;28.33;4.97;;;;;;;4.17;92.98;102150.69;10458715;28;20056;-57
2022/01/30 20:37:34;;;;;;;20.20;5.07;;;;;;;3.99;93.79;102143.97;10479960;28;20049;-56
2022/01/30 20:42:37;;;;;;;29.50;5.95;;;;;;;4.01;94.09;102105.94;10456912;28;20051;-56
2022/01/30 20:47:42;;;;;;;21.50;5.95;;;;;;;4.08;93.53;102112.75;10457537;28;20085;-54
2022/01/30 20:52:44;;;;;;;23.40;6.18;;;;;;;4.27;94.61;102110.88;10457618;28;20060;-54
2022/01/30 20:57:47;;;;;;;23.30;5.35;;;;;;;4.12;95.05;102096.31;10457578;28;20060;-55
2022/01/30 21:02:49;;;;;;;23.88;5.50;;;;;;;4.05;95.00;102073.91;10457459;28;20055;-57
2022/01/30 21:07:53;;;;;;;29.30;5.57;;;;;;;4.12;96.91;102104.09;10455926;28;20405;-57
2022/01/30 21:13:03;;;;;;;17.55;5.10;;;;;;;4.04;94.91;102103.31;10463379;28;20045;-56
2022/01/30 21:18:06;;;;;;;17.65;4.78;;;;;;;4.36;96.25;102064.09;10468700;28;20055;-55
2022/01/30 21:23:08;;;;;;;15.95;5.35;;;;;;;4.19;94.74;102020.19;10456544;28;20512;-57
2022/01/30 21:28:13;;;;;;;24.42;5.90;;;;;;;3.87;95.16;102015.38;10455131;28;20048;-56
2022/01/30 21:33:16;;;;;;;19.67;5.97;;;;;;;4.02;91.77;101988.44;10456659;28;20041;-54
2022/01/30 21:38:23;;;;;;;26.23;6.13;;;;;;;4.13;93.24;101981.38;10456942;28;20045;-57
2022/01/30 21:43:26;;;;;;;24.33;6.43;;;;;;;3.90;90.05;101953.13;10456645;28;20052;-56
2022/01/30 21:48:29;;;;;;;24.77;6.18;;;;;;;4.08;89.43;101946.88;10456316;28;20063;-53
2022/01/30 21:53:32;;;;;;;22.48;5.35;;;;;;;3.89;90.85;101934.13;10456413;28;20049;-56
2022/01/30 21:58:34;;;;;;;24.48;7.15;;;;;;;3.80;90.88;101916.13;10456529;28;20132;-57
2022/01/30 22:03:37;;;;;;;22.30;5.63;;;;;;;3.81;90.10;101920.41;10463568;28;20059;-51
2022/01/30 22:08:39;;;;;;;25.52;6.25;;;;;;;3.87;89.51;101909.97;10464107;28;20049;-53
2022/01/30 22:13:42;;;;;;;22.10;5.35;;;;;;;3.87;90.31;101899.63;10463537;28;20493;-56
2022/01/30 22:18:45;;;;;;;15.55;4.85;;;;;;;3.94;89.08;101905.59;10463566;28;20075;-56
2022/01/30 22:23:47;;;;;;;18.02;5.68;;;;;;;4.08;90.04;101864.81;10463414;28;20056;-53
2022/01/30 22:28:49;;;;;;;15.20;5.10;;;;;;;3.99;89.27;101843.34;10463026;28;20057;-55
2022/01/30 22:33:52;;;;;;;19.83;5.97;;;;;;;4.05;90.70;101838.06;10463012;28;20051;-57
2022/01/30 22:38:54;;;;;;;23.38;6.18;;;;;;;3.91;89.37;101812.34;10462989;28;20053;-56
2022/01/30 22:43:56;;;;;;;19.88;6.20;;;;;;;4.07;89.92;101800.06;10462972;28;20071;-58
2022/01/30 22:48:59;;;;;;;20.92;6.30;;;;;;;4.07;89.88;101737.84;10462531;28;20049;-57
2022/01/30 22:54:01;;;;;;;15.65;5.45;;;;;;;3.86;90.69;101692.38;10462094;28;20049;-55
2022/01/30 22:59:04;;;;;;;14.70;6.03;;;;;;;3.64;90.59;101656.44;10461872;28;20080;-58
2022/01/30 23:04:06;;;;;;;20.80;5.15;;;;;;;3.58;90.78;101622.88;10462570;28;20063;-56
2022/01/30 23:09:09;;;;;;;21.25;6.72;;;;;;;3.61;91.46;101596.06;10461817;28;20095;-56
2022/01/30 23:14:11;;;;;;;27.60;6.90;;;;;;;3.68;90.53;101541.56;10481986;28;20404;-55
2022/01/30 23:19:13;;;;;;;17.35;6.35;;;;;;;3.53;91.78;101519.38;10461449;28;20049;-56
2022/01/30 23:24:17;;;;;;;24.83;6.00;;;;;;;3.70;92.01;101505.28;10461321;28;20497;-57
2022/01/30 23:29:20;;;;;;;28.73;7.35;;;;;;;3.57;92.58;101509.81;10461539;28;20049;-58
2022/01/30 23:34:24;;;;;;;17.20;5.65;;;;;;;3.66;93.29;101516.56;10459772;28;20052;-59
2022/01/30 23:39:32;;;;;;;16.00;6.47;;;;;;;3.57;92.83;101519.31;10460448;28;20049;-55
2022/01/30 23:44:35;;;;;;;20.90;6.55;;;;;;;3.59;93.59;101520.13;10460413;28;20528;-55
2022/01/30 23:49:37;;;;;;;18.52;6.57;;;;;;;3.65;93.10;101488.97;10464169;28;20049;-56
2022/01/30 23:54:39;;;;;;;15.13;5.45;;;;;;;3.82;94.50;101458.44;10459904;28;20056;-54
2022/01/30 23:59:43;;;;;;;20.45;6.05;;;;;;;3.85;94.46;101416.94;10458650;28;20051;-57
